sensor_id;sensor_type;location;lat;lon;timestamp;temperature;humidity
21473;DHT22;10898;48.072;11.682;2022-07-23T00:01:31;24.60;84.00
21473;DHT22;10898;48.072;11.682;2022-07-23T00:03:34;24.60;84.10
21473;DHT22;10898;48.072;11.682;2022-07-23T00:05:35;24.60;84.10
21473;DHT22;10898;48.072;11.682;2022-07-23T00:07:39;24.60;84.10
21473;DHT22;10898;48.072;11.682;2022-07-23T00:09:41;24.60;83.80
21473;DHT22;10898;48.072;11.682;2022-07-23T00:11:42;24.60;84.80
21473;DHT22;10898;48.072;11.682;2022-07-23T00:13:44;24.60;84.90
21473;DHT22;10898;48.072;11.682;2022-07-23T00:15:46;24.50;87.40
21473;DHT22;10898;48.072;11.682;2022-07-23T00:17:48;24.50;86.50
21473;DHT22;10898;48.072;11.682;2022-07-23T00:19:50;24.50;86.40
21473;DHT22;10898;48.072;11.682;2022-07-23T00:21:52;24.50;86.30
21473;DHT22;10898;48.072;11.682;2022-07-23T00:23:53;24.50;87.10
21473;DHT22;10898;48.072;11.682;2022-07-23T00:25:55;24.50;87.10
21473;DHT22;10898;48.072;11.682;2022-07-23T00:27:58;24.40;86.80
21473;DHT22;10898;48.072;11.682;2022-07-23T00:29:59;24.40;87.60
21473;DHT22;10898;48.072;11.682;2022-07-23T00:32:01;24.30;87.30
21473;DHT22;10898;48.072;11.682;2022-07-23T00:34:03;24.30;86.50
21473;DHT22;10898;48.072;11.682;2022-07-23T00:36:05;24.30;86.90
21473;DHT22;10898;48.072;11.682;2022-07-23T00:38:08;24.30;87.30
21473;DHT22;10898;48.072;11.682;2022-07-23T00:40:11;24.30;87.60
21473;DHT22;10898;48.072;11.682;2022-07-23T00:42:13;24.20;88.10
21473;DHT22;10898;48.072;11.682;2022-07-23T00:44:22;24.20;87.80
21473;DHT22;10898;48.072;11.682;2022-07-23T00:46:23;24.20;86.90
21473;DHT22;10898;48.072;11.682;2022-07-23T00:48:26;24.20;87.10
21473;DHT22;10898;48.072;11.682;2022-07-23T00:50:28;24.20;87.10
21473;DHT22;10898;48.072;11.682;2022-07-23T00:52:31;24.20;87.50
21473;DHT22;10898;48.072;11.682;2022-07-23T00:54:33;24.20;88.50
21473;DHT22;10898;48.072;11.682;2022-07-23T00:56:35;24.20;88.70
21473;DHT22;10898;48.072;11.682;2022-07-23T00:58:37;24.10;87.70
21473;DHT22;10898;48.072;11.682;2022-07-23T01:00:39;24.20;87.20
21473;DHT22;10898;48.072;11.682;2022-07-23T01:02:41;24.10;87.40
21473;DHT22;10898;48.072;11.682;2022-07-23T01:04:43;24.10;86.50
21473;DHT22;10898;48.072;11.682;2022-07-23T01:06:45;24.10;87.60
21473;DHT22;10898;48.072;11.682;2022-07-23T01:08:48;24.10;86.50
21473;DHT22;10898;48.072;11.682;2022-07-23T01:10:50;24.10;86.10
21473;DHT22;10898;48.072;11.682;2022-07-23T01:12:52;24.00;86.30
21473;DHT22;10898;48.072;11.682;2022-07-23T01:14:54;24.00;86.20
21473;DHT22;10898;48.072;11.682;2022-07-23T01:16:57;23.90;87.30
21473;DHT22;10898;48.072;11.682;2022-07-23T01:18:59;23.90;87.00
21473;DHT22;10898;48.072;11.682;2022-07-23T01:21:01;23.90;86.60
21473;DHT22;10898;48.072;11.682;2022-07-23T01:23:03;23.80;86.70
21473;DHT22;10898;48.072;11.682;2022-07-23T01:25:05;23.80;87.20
21473;DHT22;10898;48.072;11.682;2022-07-23T01:27:07;23.80;87.30
21473;DHT22;10898;48.072;11.682;2022-07-23T01:29:09;23.90;87.40
21473;DHT22;10898;48.072;11.682;2022-07-23T01:31:11;23.90;87.00
21473;DHT22;10898;48.072;11.682;2022-07-23T01:33:14;24.00;86.00
21473;DHT22;10898;48.072;11.682;2022-07-23T01:35:16;24.00;85.60
21473;DHT22;10898;48.072;11.682;2022-07-23T01:37:18;24.00;80.70
21473;DHT22;10898;48.072;11.682;2022-07-23T01:39:20;23.90;79.00
21473;DHT22;10898;48.072;11.682;2022-07-23T01:41:22;23.70;78.80
21473;DHT22;10898;48.072;11.682;2022-07-23T01:43:24;23.50;78.70
21473;DHT22;10898;48.072;11.682;2022-07-23T01:45:28;23.30;77.50
21473;DHT22;10898;48.072;11.682;2022-07-23T01:47:30;23.20;76.70
21473;DHT22;10898;48.072;11.682;2022-07-23T01:49:31;23.10;76.70
21473;DHT22;10898;48.072;11.682;2022-07-23T01:51:33;23.10;75.70
21473;DHT22;10898;48.072;11.682;2022-07-23T01:53:35;23.10;76.60
21473;DHT22;10898;48.072;11.682;2022-07-23T01:55:37;23.00;77.30
21473;DHT22;10898;48.072;11.682;2022-07-23T01:57:39;23.00;78.30
21473;DHT22;10898;48.072;11.682;2022-07-23T01:59:41;22.90;79.10
21473;DHT22;10898;48.072;11.682;2022-07-23T02:01:43;22.80;79.80
21473;DHT22;10898;48.072;11.682;2022-07-23T02:03:45;22.80;81.00
21473;DHT22;10898;48.072;11.682;2022-07-23T02:05:46;22.70;81.30
21473;DHT22;10898;48.072;11.682;2022-07-23T02:07:48;22.70;82.10
21473;DHT22;10898;48.072;11.682;2022-07-23T02:09:50;22.60;82.70
21473;DHT22;10898;48.072;11.682;2022-07-23T02:11:52;22.60;83.00
21473;DHT22;10898;48.072;11.682;2022-07-23T02:13:54;22.50;82.90
21473;DHT22;10898;48.072;11.682;2022-07-23T02:15:56;22.50;83.10
21473;DHT22;10898;48.072;11.682;2022-07-23T02:17:58;22.50;83.30
21473;DHT22;10898;48.072;11.682;2022-07-23T02:19:59;22.40;83.60
21473;DHT22;10898;48.072;11.682;2022-07-23T02:22:02;22.40;83.80
21473;DHT22;10898;48.072;11.682;2022-07-23T02:24:04;22.50;83.70
21473;DHT22;10898;48.072;11.682;2022-07-23T02:26:06;22.50;84.20
21473;DHT22;10898;48.072;11.682;2022-07-23T02:28:07;22.40;85.00
21473;DHT22;10898;48.072;11.682;2022-07-23T02:30:09;22.40;85.20
21473;DHT22;10898;48.072;11.682;2022-07-23T02:32:11;22.40;86.40
21473;DHT22;10898;48.072;11.682;2022-07-23T02:34:13;22.40;87.10
21473;DHT22;10898;48.072;11.682;2022-07-23T02:36:15;22.40;88.30
21473;DHT22;10898;48.072;11.682;2022-07-23T02:38:17;22.30;90.10
21473;DHT22;10898;48.072;11.682;2022-07-23T02:40:19;22.40;89.60
21473;DHT22;10898;48.072;11.682;2022-07-23T02:42:21;22.30;90.30
21473;DHT22;10898;48.072;11.682;2022-07-23T02:44:25;22.20;90.40
21473;DHT22;10898;48.072;11.682;2022-07-23T02:46:27;22.20;90.70
21473;DHT22;10898;48.072;11.682;2022-07-23T02:48:29;22.20;90.90
21473;DHT22;10898;48.072;11.682;2022-07-23T02:50:31;22.20;90.80
21473;DHT22;10898;48.072;11.682;2022-07-23T02:52:32;22.20;91.90
21473;DHT22;10898;48.072;11.682;2022-07-23T02:54:34;22.20;93.20
21473;DHT22;10898;48.072;11.682;2022-07-23T02:56:36;22.10;93.00
21473;DHT22;10898;48.072;11.682;2022-07-23T02:58:38;22.10;93.00
21473;DHT22;10898;48.072;11.682;2022-07-23T03:00:40;22.10;93.30
21473;DHT22;10898;48.072;11.682;2022-07-23T03:02:42;22.10;92.60
21473;DHT22;10898;48.072;11.682;2022-07-23T03:04:44;22.00;93.50
21473;DHT22;10898;48.072;11.682;2022-07-23T03:06:46;22.00;93.10
21473;DHT22;10898;48.072;11.682;2022-07-23T03:08:48;22.00;92.80
21473;DHT22;10898;48.072;11.682;2022-07-23T03:10:50;21.90;92.30
21473;DHT22;10898;48.072;11.682;2022-07-23T03:12:52;21.90;92.30
21473;DHT22;10898;48.072;11.682;2022-07-23T03:14:54;21.90;93.10
21473;DHT22;10898;48.072;11.682;2022-07-23T03:16:56;21.90;95.10
21473;DHT22;10898;48.072;11.682;2022-07-23T03:18:57;21.90;95.60
21473;DHT22;10898;48.072;11.682;2022-07-23T03:21:00;21.80;97.00
21473;DHT22;10898;48.072;11.682;2022-07-23T03:23:02;21.80;97.90
21473;DHT22;10898;48.072;11.682;2022-07-23T03:25:04;21.80;99.10
21473;DHT22;10898;48.072;11.682;2022-07-23T03:27:06;21.70;99.50
21473;DHT22;10898;48.072;11.682;2022-07-23T03:29:08;21.70;99.80
21473;DHT22;10898;48.072;11.682;2022-07-23T03:31:10;21.70;99.70
21473;DHT22;10898;48.072;11.682;2022-07-23T03:33:16;21.60;99.90
21473;DHT22;10898;48.072;11.682;2022-07-23T03:35:18;21.60;99.90
21473;DHT22;10898;48.072;11.682;2022-07-23T03:37:20;21.60;99.90
21473;DHT22;10898;48.072;11.682;2022-07-23T03:39:22;21.60;99.90
21473;DHT22;10898;48.072;11.682;2022-07-23T03:41:24;21.50;99.90
21473;DHT22;10898;48.072;11.682;2022-07-23T03:43:26;21.50;99.90
21473;DHT22;10898;48.072;11.682;2022-07-23T03:45:28;21.50;99.90
21473;DHT22;10898;48.072;11.682;2022-07-23T03:47:30;21.50;99.90
21473;DHT22;10898;48.072;11.682;2022-07-23T03:49:32;21.50;99.90
21473;DHT22;10898;48.072;11.682;2022-07-23T03:51:34;21.50;99.90
21473;DHT22;10898;48.072;11.682;2022-07-23T03:53:36;21.40;99.90
21473;DHT22;10898;48.072;11.682;2022-07-23T03:55:38;21.40;99.90
21473;DHT22;10898;48.072;11.682;2022-07-23T03:57:40;21.40;99.80
21473;DHT22;10898;48.072;11.682;2022-07-23T03:59:42;21.40;99.90
21473;DHT22;10898;48.072;11.682;2022-07-23T04:01:44;21.40;99.30
21473;DHT22;10898;48.072;11.682;2022-07-23T04:03:46;21.40;99.20
21473;DHT22;10898;48.072;11.682;2022-07-23T04:05:48;21.40;99.70
21473;DHT22;10898;48.072;11.682;2022-07-23T04:07:50;21.40;99.90
21473;DHT22;10898;48.072;11.682;2022-07-23T04:09:52;21.40;99.90
21473;DHT22;10898;48.072;11.682;2022-07-23T04:11:53;21.40;99.70
21473;DHT22;10898;48.072;11.682;2022-07-23T04:13:55;21.40;99.60
21473;DHT22;10898;48.072;11.682;2022-07-23T04:15:57;21.40;99.90
21473;DHT22;10898;48.072;11.682;2022-07-23T04:17:59;21.40;99.90
21473;DHT22;10898;48.072;11.682;2022-07-23T04:20:01;21.40;99.90
21473;DHT22;10898;48.072;11.682;2022-07-23T04:22:03;21.40;99.90
21473;DHT22;10898;48.072;11.682;2022-07-23T04:24:05;21.30;98.90
21473;DHT22;10898;48.072;11.682;2022-07-23T04:26:07;21.40;99.80
21473;DHT22;10898;48.072;11.682;2022-07-23T04:28:09;21.30;99.90
21473;DHT22;10898;48.072;11.682;2022-07-23T04:30:10;21.30;99.90
21473;DHT22;10898;48.072;11.682;2022-07-23T04:32:12;21.40;99.90
21473;DHT22;10898;48.072;11.682;2022-07-23T04:34:14;21.40;99.90
21473;DHT22;10898;48.072;11.682;2022-07-23T04:36:16;21.40;99.90
21473;DHT22;10898;48.072;11.682;2022-07-23T04:38:18;21.40;99.90
21473;DHT22;10898;48.072;11.682;2022-07-23T04:40:20;21.30;99.90
21473;DHT22;10898;48.072;11.682;2022-07-23T04:42:23;21.40;99.90
21473;DHT22;10898;48.072;11.682;2022-07-23T04:44:25;21.40;99.90
21473;DHT22;10898;48.072;11.682;2022-07-23T04:46:27;21.40;99.90
21473;DHT22;10898;48.072;11.682;2022-07-23T04:48:29;21.40;99.90
21473;DHT22;10898;48.072;11.682;2022-07-23T04:50:31;21.40;99.90
21473;DHT22;10898;48.072;11.682;2022-07-23T04:52:33;21.40;99.90
21473;DHT22;10898;48.072;11.682;2022-07-23T04:54:35;21.40;99.90
21473;DHT22;10898;48.072;11.682;2022-07-23T04:56:37;21.40;99.90
21473;DHT22;10898;48.072;11.682;2022-07-23T04:58:38;21.40;99.90
21473;DHT22;10898;48.072;11.682;2022-07-23T05:00:40;21.40;99.90
21473;DHT22;10898;48.072;11.682;2022-07-23T05:02:42;21.50;99.90
21473;DHT22;10898;48.072;11.682;2022-07-23T05:04:44;21.50;99.90
21473;DHT22;10898;48.072;11.682;2022-07-23T05:06:46;21.50;99.90
21473;DHT22;10898;48.072;11.682;2022-07-23T05:08:48;21.50;99.90
21473;DHT22;10898;48.072;11.682;2022-07-23T05:10:50;21.50;99.90
21473;DHT22;10898;48.072;11.682;2022-07-23T05:12:51;21.60;99.90
21473;DHT22;10898;48.072;11.682;2022-07-23T05:14:53;21.60;99.90
21473;DHT22;10898;48.072;11.682;2022-07-23T05:16:55;21.60;99.90
21473;DHT22;10898;48.072;11.682;2022-07-23T05:18:57;21.70;99.90
21473;DHT22;10898;48.072;11.682;2022-07-23T05:20:59;21.70;99.90
21473;DHT22;10898;48.072;11.682;2022-07-23T05:23:01;21.70;99.90
21473;DHT22;10898;48.072;11.682;2022-07-23T05:25:03;21.70;99.90
21473;DHT22;10898;48.072;11.682;2022-07-23T05:27:06;21.80;99.90
21473;DHT22;10898;48.072;11.682;2022-07-23T05:29:09;21.80;99.90
21473;DHT22;10898;48.072;11.682;2022-07-23T05:31:11;21.80;99.90
21473;DHT22;10898;48.072;11.682;2022-07-23T05:33:13;21.80;99.90
21473;DHT22;10898;48.072;11.682;2022-07-23T05:35:14;21.80;99.90
21473;DHT22;10898;48.072;11.682;2022-07-23T05:37:16;21.80;99.90
21473;DHT22;10898;48.072;11.682;2022-07-23T05:39:18;21.80;99.90
21473;DHT22;10898;48.072;11.682;2022-07-23T05:41:20;21.80;99.90
21473;DHT22;10898;48.072;11.682;2022-07-23T05:43:22;21.80;99.90
21473;DHT22;10898;48.072;11.682;2022-07-23T05:45:24;21.80;99.90
21473;DHT22;10898;48.072;11.682;2022-07-23T05:47:26;21.80;99.90
21473;DHT22;10898;48.072;11.682;2022-07-23T05:49:28;21.80;99.90
21473;DHT22;10898;48.072;11.682;2022-07-23T05:51:31;21.90;99.90
21473;DHT22;10898;48.072;11.682;2022-07-23T05:53:33;21.90;99.90
21473;DHT22;10898;48.072;11.682;2022-07-23T05:55:35;21.90;99.90
21473;DHT22;10898;48.072;11.682;2022-07-23T05:57:37;21.90;99.90
21473;DHT22;10898;48.072;11.682;2022-07-23T05:59:39;22.00;99.90
21473;DHT22;10898;48.072;11.682;2022-07-23T06:01:41;22.00;99.90
21473;DHT22;10898;48.072;11.682;2022-07-23T06:03:43;22.00;99.90
21473;DHT22;10898;48.072;11.682;2022-07-23T06:05:45;22.00;99.90
21473;DHT22;10898;48.072;11.682;2022-07-23T06:07:47;22.00;99.90
21473;DHT22;10898;48.072;11.682;2022-07-23T06:09:49;22.00;99.90
21473;DHT22;10898;48.072;11.682;2022-07-23T06:11:51;22.10;99.90
21473;DHT22;10898;48.072;11.682;2022-07-23T06:13:53;22.00;99.90
21473;DHT22;10898;48.072;11.682;2022-07-23T06:15:54;22.00;99.90
21473;DHT22;10898;48.072;11.682;2022-07-23T06:17:56;22.00;99.90
21473;DHT22;10898;48.072;11.682;2022-07-23T06:19:58;22.10;99.90
21473;DHT22;10898;48.072;11.682;2022-07-23T06:22:00;22.10;99.90
21473;DHT22;10898;48.072;11.682;2022-07-23T06:24:02;22.10;99.90
21473;DHT22;10898;48.072;11.682;2022-07-23T06:26:04;22.10;99.90
21473;DHT22;10898;48.072;11.682;2022-07-23T06:28:06;22.10;99.90
21473;DHT22;10898;48.072;11.682;2022-07-23T06:30:08;22.20;99.90
21473;DHT22;10898;48.072;11.682;2022-07-23T06:32:11;22.20;99.90
21473;DHT22;10898;48.072;11.682;2022-07-23T06:34:13;22.20;99.90
21473;DHT22;10898;48.072;11.682;2022-07-23T06:36:15;22.20;99.90
21473;DHT22;10898;48.072;11.682;2022-07-23T06:38:17;22.20;99.90
21473;DHT22;10898;48.072;11.682;2022-07-23T06:40:20;22.20;99.90
21473;DHT22;10898;48.072;11.682;2022-07-23T06:42:21;22.20;99.90
21473;DHT22;10898;48.072;11.682;2022-07-23T06:44:23;22.20;99.90
21473;DHT22;10898;48.072;11.682;2022-07-23T06:46:25;22.20;99.90
21473;DHT22;10898;48.072;11.682;2022-07-23T06:48:27;22.20;99.90
21473;DHT22;10898;48.072;11.682;2022-07-23T06:50:30;22.30;99.90
21473;DHT22;10898;48.072;11.682;2022-07-23T06:52:32;22.20;99.90
21473;DHT22;10898;48.072;11.682;2022-07-23T06:54:37;22.30;99.90
21473;DHT22;10898;48.072;11.682;2022-07-23T06:56:39;22.30;99.90
21473;DHT22;10898;48.072;11.682;2022-07-23T06:58:41;22.30;99.90
21473;DHT22;10898;48.072;11.682;2022-07-23T07:00:42;22.40;99.90
21473;DHT22;10898;48.072;11.682;2022-07-23T07:02:44;22.40;99.90
21473;DHT22;10898;48.072;11.682;2022-07-23T07:04:46;22.50;99.90
21473;DHT22;10898;48.072;11.682;2022-07-23T07:06:48;22.50;99.90
21473;DHT22;10898;48.072;11.682;2022-07-23T07:08:50;22.60;99.90
21473;DHT22;10898;48.072;11.682;2022-07-23T07:10:51;22.60;99.90
21473;DHT22;10898;48.072;11.682;2022-07-23T07:12:53;22.70;99.90
21473;DHT22;10898;48.072;11.682;2022-07-23T07:14:55;22.80;99.90
21473;DHT22;10898;48.072;11.682;2022-07-23T07:16:58;22.80;99.90
21473;DHT22;10898;48.072;11.682;2022-07-23T07:19:00;22.80;99.70
21473;DHT22;10898;48.072;11.682;2022-07-23T07:21:02;22.90;99.90
21473;DHT22;10898;48.072;11.682;2022-07-23T07:23:04;23.00;99.50
21473;DHT22;10898;48.072;11.682;2022-07-23T07:25:06;23.10;99.60
21473;DHT22;10898;48.072;11.682;2022-07-23T07:27:08;23.10;99.90
21473;DHT22;10898;48.072;11.682;2022-07-23T07:29:10;23.20;99.70
21473;DHT22;10898;48.072;11.682;2022-07-23T07:31:12;23.20;99.60
21473;DHT22;10898;48.072;11.682;2022-07-23T07:33:14;23.20;99.00
21473;DHT22;10898;48.072;11.682;2022-07-23T07:35:16;23.30;99.60
21473;DHT22;10898;48.072;11.682;2022-07-23T07:37:18;23.30;99.10
21473;DHT22;10898;48.072;11.682;2022-07-23T07:39:20;23.40;98.70
21473;DHT22;10898;48.072;11.682;2022-07-23T07:41:22;23.40;99.40
21473;DHT22;10898;48.072;11.682;2022-07-23T07:43:25;23.50;99.00
21473;DHT22;10898;48.072;11.682;2022-07-23T07:45:27;23.50;98.50
21473;DHT22;10898;48.072;11.682;2022-07-23T07:47:29;23.50;98.00
21473;DHT22;10898;48.072;11.682;2022-07-23T07:49:30;23.50;97.80
21473;DHT22;10898;48.072;11.682;2022-07-23T07:51:35;23.40;97.60
21473;DHT22;10898;48.072;11.682;2022-07-23T07:53:38;23.30;98.20
21473;DHT22;10898;48.072;11.682;2022-07-23T07:55:40;23.30;98.50
21473;DHT22;10898;48.072;11.682;2022-07-23T07:57:42;23.20;98.70
21473;DHT22;10898;48.072;11.682;2022-07-23T07:59:49;23.30;99.30
21473;DHT22;10898;48.072;11.682;2022-07-23T08:01:56;23.30;99.20
21473;DHT22;10898;48.072;11.682;2022-07-23T08:03:58;23.20;99.30
21473;DHT22;10898;48.072;11.682;2022-07-23T08:06:01;23.20;99.70
21473;DHT22;10898;48.072;11.682;2022-07-23T08:08:03;23.20;99.90
21473;DHT22;10898;48.072;11.682;2022-07-23T08:10:08;23.20;99.80
21473;DHT22;10898;48.072;11.682;2022-07-23T08:12:11;23.20;99.40
21473;DHT22;10898;48.072;11.682;2022-07-23T08:14:13;23.20;99.50
21473;DHT22;10898;48.072;11.682;2022-07-23T08:16:14;23.20;99.80
21473;DHT22;10898;48.072;11.682;2022-07-23T08:18:16;23.20;99.70
21473;DHT22;10898;48.072;11.682;2022-07-23T08:20:19;23.20;99.70
21473;DHT22;10898;48.072;11.682;2022-07-23T08:22:21;23.20;99.90
21473;DHT22;10898;48.072;11.682;2022-07-23T08:24:23;23.20;99.60
21473;DHT22;10898;48.072;11.682;2022-07-23T08:26:25;23.20;99.30
21473;DHT22;10898;48.072;11.682;2022-07-23T08:28:26;23.30;99.30
21473;DHT22;10898;48.072;11.682;2022-07-23T08:30:29;23.30;99.50
21473;DHT22;10898;48.072;11.682;2022-07-23T08:32:31;23.30;99.00
21473;DHT22;10898;48.072;11.682;2022-07-23T08:34:46;23.40;99.40
21473;DHT22;10898;48.072;11.682;2022-07-23T08:36:47;23.40;99.10
21473;DHT22;10898;48.072;11.682;2022-07-23T08:38:49;23.40;98.90
21473;DHT22;10898;48.072;11.682;2022-07-23T08:40:53;23.50;98.80
21473;DHT22;10898;48.072;11.682;2022-07-23T08:42:55;23.60;98.40
21473;DHT22;10898;48.072;11.682;2022-07-23T08:44:56;23.70;99.00
21473;DHT22;10898;48.072;11.682;2022-07-23T08:46:58;23.70;98.50
21473;DHT22;10898;48.072;11.682;2022-07-23T08:49:00;23.70;98.40
21473;DHT22;10898;48.072;11.682;2022-07-23T08:51:04;23.70;98.40
21473;DHT22;10898;48.072;11.682;2022-07-23T08:53:06;23.80;97.80
21473;DHT22;10898;48.072;11.682;2022-07-23T08:55:08;23.90;97.80
21473;DHT22;10898;48.072;11.682;2022-07-23T08:57:10;23.90;97.80
21473;DHT22;10898;48.072;11.682;2022-07-23T08:59:12;23.90;97.60
21473;DHT22;10898;48.072;11.682;2022-07-23T09:01:15;23.90;97.70
21473;DHT22;10898;48.072;11.682;2022-07-23T09:03:18;24.00;97.40
21473;DHT22;10898;48.072;11.682;2022-07-23T09:05:21;24.00;97.40
21473;DHT22;10898;48.072;11.682;2022-07-23T09:07:23;24.00;97.10
21473;DHT22;10898;48.072;11.682;2022-07-23T09:09:25;24.00;96.70
21473;DHT22;10898;48.072;11.682;2022-07-23T09:11:31;24.00;96.20
21473;DHT22;10898;48.072;11.682;2022-07-23T09:15:48;24.00;95.90
21473;DHT22;10898;48.072;11.682;2022-07-23T09:17:54;24.00;96.40
21473;DHT22;10898;48.072;11.682;2022-07-23T09:20:02;24.00;96.30
21473;DHT22;10898;48.072;11.682;2022-07-23T09:24:43;24.10;95.70
21473;DHT22;10898;48.072;11.682;2022-07-23T09:27:02;24.00;95.20
21473;DHT22;10898;48.072;11.682;2022-07-23T09:31:14;24.10;95.10
21473;DHT22;10898;48.072;11.682;2022-07-23T09:33:16;24.10;95.20
21473;DHT22;10898;48.072;11.682;2022-07-23T09:35:18;24.20;94.70
21473;DHT22;10898;48.072;11.682;2022-07-23T09:37:20;24.30;94.60
21473;DHT22;10898;48.072;11.682;2022-07-23T09:39:31;24.30;94.10
21473;DHT22;10898;48.072;11.682;2022-07-23T09:41:44;24.30;93.70
21473;DHT22;10898;48.072;11.682;2022-07-23T09:43:46;24.40;93.30
21473;DHT22;10898;48.072;11.682;2022-07-23T09:45:48;24.40;93.00
21473;DHT22;10898;48.072;11.682;2022-07-23T09:47:51;24.40;93.00
21473;DHT22;10898;48.072;11.682;2022-07-23T09:50:11;24.50;93.30
21473;DHT22;10898;48.072;11.682;2022-07-23T09:52:17;24.50;92.70
21473;DHT22;10898;48.072;11.682;2022-07-23T09:54:28;24.50;92.90
21473;DHT22;10898;48.072;11.682;2022-07-23T09:56:32;24.60;92.90
21473;DHT22;10898;48.072;11.682;2022-07-23T09:58:35;24.70;92.60
21473;DHT22;10898;48.072;11.682;2022-07-23T10:00:44;24.70;92.60
21473;DHT22;10898;48.072;11.682;2022-07-23T10:02:47;24.80;92.00
21473;DHT22;10898;48.072;11.682;2022-07-23T10:04:52;24.90;92.00
21473;DHT22;10898;48.072;11.682;2022-07-23T10:06:57;25.00;91.30
21473;DHT22;10898;48.072;11.682;2022-07-23T10:08:59;25.10;91.10
21473;DHT22;10898;48.072;11.682;2022-07-23T10:11:01;25.20;90.90
21473;DHT22;10898;48.072;11.682;2022-07-23T10:13:04;25.30;90.90
21473;DHT22;10898;48.072;11.682;2022-07-23T10:15:12;25.50;90.20
21473;DHT22;10898;48.072;11.682;2022-07-23T10:17:14;25.60;89.00
21473;DHT22;10898;48.072;11.682;2022-07-23T10:19:16;25.80;88.00
21473;DHT22;10898;48.072;11.682;2022-07-23T10:21:21;25.90;86.80
21473;DHT22;10898;48.072;11.682;2022-07-23T10:23:33;25.90;86.30
21473;DHT22;10898;48.072;11.682;2022-07-23T10:25:51;26.00;85.70
21473;DHT22;10898;48.072;11.682;2022-07-23T10:30:00;26.20;81.60
21473;DHT22;10898;48.072;11.682;2022-07-23T10:36:44;26.30;77.40
21473;DHT22;10898;48.072;11.682;2022-07-23T10:39:04;26.30;77.90
21473;DHT22;10898;48.072;11.682;2022-07-23T10:41:09;26.30;77.60
21473;DHT22;10898;48.072;11.682;2022-07-23T10:43:15;26.40;76.20
21473;DHT22;10898;48.072;11.682;2022-07-23T10:47:25;26.50;76.30
21473;DHT22;10898;48.072;11.682;2022-07-23T10:49:40;26.60;75.70
21473;DHT22;10898;48.072;11.682;2022-07-23T10:52:14;26.70;75.40
21473;DHT22;10898;48.072;11.682;2022-07-23T10:54:04;26.70;76.00
21473;DHT22;10898;48.072;11.682;2022-07-23T10:58:56;26.70;73.50
21473;DHT22;10898;48.072;11.682;2022-07-23T11:01:29;26.60;74.20
21473;DHT22;10898;48.072;11.682;2022-07-23T11:05:43;26.60;74.20
21473;DHT22;10898;48.072;11.682;2022-07-23T11:10:06;26.60;74.70
21473;DHT22;10898;48.072;11.682;2022-07-23T11:16:50;26.60;76.20
21473;DHT22;10898;48.072;11.682;2022-07-23T11:18:57;26.60;76.60
21473;DHT22;10898;48.072;11.682;2022-07-23T11:21:14;26.60;75.80
21473;DHT22;10898;48.072;11.682;2022-07-23T11:23:21;26.60;75.10
21473;DHT22;10898;48.072;11.682;2022-07-23T11:27:39;26.60;73.20
21473;DHT22;10898;48.072;11.682;2022-07-23T11:29:41;26.50;74.10
21473;DHT22;10898;48.072;11.682;2022-07-23T11:36:17;26.40;73.30
21473;DHT22;10898;48.072;11.682;2022-07-23T11:38:20;26.40;73.60
21473;DHT22;10898;48.072;11.682;2022-07-23T11:40:22;26.30;73.40
21473;DHT22;10898;48.072;11.682;2022-07-23T11:42:24;26.30;74.00
21473;DHT22;10898;48.072;11.682;2022-07-23T11:44:33;26.20;73.50
21473;DHT22;10898;48.072;11.682;2022-07-23T11:46:35;26.20;74.10
21473;DHT22;10898;48.072;11.682;2022-07-23T11:48:37;26.10;74.20
21473;DHT22;10898;48.072;11.682;2022-07-23T11:50:41;26.00;74.60
21473;DHT22;10898;48.072;11.682;2022-07-23T11:52:43;25.90;75.00
21473;DHT22;10898;48.072;11.682;2022-07-23T11:54:49;25.90;75.80
21473;DHT22;10898;48.072;11.682;2022-07-23T11:56:55;25.90;76.00
21473;DHT22;10898;48.072;11.682;2022-07-23T11:58:57;25.90;76.00
21473;DHT22;10898;48.072;11.682;2022-07-23T12:01:01;25.90;76.10
21473;DHT22;10898;48.072;11.682;2022-07-23T12:03:04;25.90;76.00
21473;DHT22;10898;48.072;11.682;2022-07-23T12:05:10;25.90;76.30
21473;DHT22;10898;48.072;11.682;2022-07-23T12:07:26;25.90;76.30
21473;DHT22;10898;48.072;11.682;2022-07-23T12:09:28;25.80;76.50
21473;DHT22;10898;48.072;11.682;2022-07-23T12:11:30;25.80;77.00
21473;DHT22;10898;48.072;11.682;2022-07-23T12:13:31;25.70;77.30
21473;DHT22;10898;48.072;11.682;2022-07-23T12:15:35;25.70;77.60
21473;DHT22;10898;48.072;11.682;2022-07-23T12:17:40;25.70;77.00
21473;DHT22;10898;48.072;11.682;2022-07-23T12:19:42;25.70;77.00
21473;DHT22;10898;48.072;11.682;2022-07-23T12:21:46;25.70;77.00
21473;DHT22;10898;48.072;11.682;2022-07-23T12:23:48;25.60;77.30
21473;DHT22;10898;48.072;11.682;2022-07-23T12:25:51;25.60;77.50
21473;DHT22;10898;48.072;11.682;2022-07-23T12:32:18;25.60;78.30
21473;DHT22;10898;48.072;11.682;2022-07-23T12:34:20;25.50;78.20
21473;DHT22;10898;48.072;11.682;2022-07-23T12:36:22;25.40;78.60
21473;DHT22;10898;48.072;11.682;2022-07-23T12:42:48;25.40;79.90
21473;DHT22;10898;48.072;11.682;2022-07-23T12:47:24;25.40;79.00
21473;DHT22;10898;48.072;11.682;2022-07-23T12:49:26;25.40;79.40
21473;DHT22;10898;48.072;11.682;2022-07-23T12:51:31;25.30;79.20
21473;DHT22;10898;48.072;11.682;2022-07-23T12:53:38;25.40;79.80
21473;DHT22;10898;48.072;11.682;2022-07-23T12:55:41;25.40;79.20
21473;DHT22;10898;48.072;11.682;2022-07-23T12:58:10;25.40;78.70
21473;DHT22;10898;48.072;11.682;2022-07-23T13:00:13;25.40;78.80
21473;DHT22;10898;48.072;11.682;2022-07-23T13:02:16;25.30;79.00
21473;DHT22;10898;48.072;11.682;2022-07-23T13:04:18;25.20;79.20
21473;DHT22;10898;48.072;11.682;2022-07-23T13:06:22;25.20;79.60
21473;DHT22;10898;48.072;11.682;2022-07-23T13:08:24;25.20;79.50
21473;DHT22;10898;48.072;11.682;2022-07-23T13:10:27;25.30;79.10
21473;DHT22;10898;48.072;11.682;2022-07-23T13:12:29;25.30;79.10
21473;DHT22;10898;48.072;11.682;2022-07-23T13:14:31;25.30;79.70
21473;DHT22;10898;48.072;11.682;2022-07-23T13:16:34;25.30;79.60
21473;DHT22;10898;48.072;11.682;2022-07-23T13:18:36;25.40;79.30
21473;DHT22;10898;48.072;11.682;2022-07-23T13:20:37;25.40;79.60
21473;DHT22;10898;48.072;11.682;2022-07-23T13:22:40;25.50;79.60
21473;DHT22;10898;48.072;11.682;2022-07-23T13:24:42;25.60;79.30
21473;DHT22;10898;48.072;11.682;2022-07-23T13:26:45;25.70;78.70
21473;DHT22;10898;48.072;11.682;2022-07-23T13:28:48;25.80;78.80
21473;DHT22;10898;48.072;11.682;2022-07-23T13:30:52;25.80;78.50